sensor_id;sensor_type;location;lat;lon;timestamp;pressure;altitude;pressure_sealevel;temperature;humidity
38880;BME280;25887;30.194;-97.880;2023-03-05T00:01:12;98248.09;;;27.61;29.20
38880;BME280;25887;30.194;-97.880;2023-03-05T00:03:58;98242.41;;;27.54;28.97
38880;BME280;25887;30.194;-97.880;2023-03-05T00:06:43;98246.25;;;27.50;29.12
38880;BME280;25887;30.194;-97.880;2023-03-05T00:09:09;98252.66;;;27.46;29.11
38880;BME280;25887;30.194;-97.880;2023-03-05T00:11:34;98249.53;;;27.41;29.38
38880;BME280;25887;30.194;-97.880;2023-03-05T00:14:01;98237.63;;;27.35;29.26
38880;BME280;25887;30.194;-97.880;2023-03-05T00:16:28;98245.84;;;27.31;29.17
38880;BME280;25887;30.194;-97.880;2023-03-05T00:18:56;98247.22;;;27.24;29.52
38880;BME280;25887;30.194;-97.880;2023-03-05T00:21:27;98251.03;;;27.19;29.26
38880;BME280;25887;30.194;-97.880;2023-03-05T00:23:53;98250.50;;;27.14;29.35
38880;BME280;25887;30.194;-97.880;2023-03-05T00:26:22;98256.97;;;27.10;29.48
38880;BME280;25887;30.194;-97.880;2023-03-05T00:28:48;98264.34;;;27.05;29.57
38880;BME280;25887;30.194;-97.880;2023-03-05T00:31:20;98263.75;;;27.00;29.55
38880;BME280;25887;30.194;-97.880;2023-03-05T00:33:50;98266.00;;;26.93;29.70
38880;BME280;25887;30.194;-97.880;2023-03-05T00:36:16;98267.25;;;26.88;29.85
38880;BME280;25887;30.194;-97.880;2023-03-05T00:39:06;98268.72;;;26.79;29.90
38880;BME280;25887;30.194;-97.880;2023-03-05T00:41:32;98269.97;;;26.74;29.74
38880;BME280;25887;30.194;-97.880;2023-03-05T00:43:58;98275.66;;;26.67;29.74
38880;BME280;25887;30.194;-97.880;2023-03-05T00:46:25;98282.28;;;26.60;29.94
38880;BME280;25887;30.194;-97.880;2023-03-05T00:48:52;98276.59;;;26.54;30.14
38880;BME280;25887;30.194;-97.880;2023-03-05T00:51:18;98286.69;;;26.47;30.03
38880;BME280;25887;30.194;-97.880;2023-03-05T00:53:44;98287.94;;;26.42;30.07
38880;BME280;25887;30.194;-97.880;2023-03-05T00:56:10;98286.63;;;26.34;29.98
38880;BME280;25887;30.194;-97.880;2023-03-05T00:58:36;98292.28;;;26.28;30.15
38880;BME280;25887;30.194;-97.880;2023-03-05T01:01:02;98289.31;;;26.20;30.17
38880;BME280;25887;30.194;-97.880;2023-03-05T01:03:28;98290.66;;;26.13;30.29
38880;BME280;25887;30.194;-97.880;2023-03-05T01:05:56;98295.47;;;26.06;30.36
38880;BME280;25887;30.194;-97.880;2023-03-05T01:08:22;98295.94;;;25.99;30.61
38880;BME280;25887;30.194;-97.880;2023-03-05T01:10:48;98305.22;;;25.92;30.43
38880;BME280;25887;30.194;-97.880;2023-03-05T01:13:14;98305.59;;;25.86;30.68
38880;BME280;25887;30.194;-97.880;2023-03-05T01:15:40;98309.44;;;25.80;30.71
38880;BME280;25887;30.194;-97.880;2023-03-05T01:18:05;98314.16;;;25.75;30.75
38880;BME280;25887;30.194;-97.880;2023-03-05T01:20:31;98309.25;;;25.69;30.90
38880;BME280;25887;30.194;-97.880;2023-03-05T01:22:57;98318.28;;;25.65;30.96
38880;BME280;25887;30.194;-97.880;2023-03-05T01:25:23;98314.22;;;25.59;31.05
38880;BME280;25887;30.194;-97.880;2023-03-05T01:27:49;98315.47;;;25.53;31.16
38880;BME280;25887;30.194;-97.880;2023-03-05T01:30:35;98317.63;;;25.47;31.24
38880;BME280;25887;30.194;-97.880;2023-03-05T01:33:00;98316.22;;;25.41;31.43
38880;BME280;25887;30.194;-97.880;2023-03-05T01:35:26;98314.78;;;25.36;31.40
38880;BME280;25887;30.194;-97.880;2023-03-05T01:38:11;98317.91;;;25.28;31.26
38880;BME280;25887;30.194;-97.880;2023-03-05T01:40:37;98317.44;;;25.21;31.41
38880;BME280;25887;30.194;-97.880;2023-03-05T01:43:14;98320.34;;;25.17;31.50
38880;BME280;25887;30.194;-97.880;2023-03-05T01:48:32;98323.53;;;25.08;31.68
38880;BME280;25887;30.194;-97.880;2023-03-05T01:50:58;98328.94;;;25.05;31.64
38880;BME280;25887;30.194;-97.880;2023-03-05T01:53:24;98331.00;;;24.99;31.90
38880;BME280;25887;30.194;-97.880;2023-03-05T01:55:50;98330.41;;;24.94;31.88
38880;BME280;25887;30.194;-97.880;2023-03-05T01:58:15;98334.16;;;24.90;31.71
38880;BME280;25887;30.194;-97.880;2023-03-05T02:00:46;98330.97;;;24.85;31.77
38880;BME280;25887;30.194;-97.880;2023-03-05T02:03:12;98340.03;;;24.80;32.11
38880;BME280;25887;30.194;-97.880;2023-03-05T02:05:40;98341.22;;;24.74;32.01
38880;BME280;25887;30.194;-97.880;2023-03-05T02:08:13;98340.56;;;24.70;31.92
38880;BME280;25887;30.194;-97.880;2023-03-05T02:10:42;98342.63;;;24.65;32.21
38880;BME280;25887;30.194;-97.880;2023-03-05T02:13:11;98350.88;;;24.59;32.18
38880;BME280;25887;30.194;-97.880;2023-03-05T02:15:38;98346.81;;;24.54;32.43
38880;BME280;25887;30.194;-97.880;2023-03-05T02:18:04;98345.38;;;24.48;32.39
38880;BME280;25887;30.194;-97.880;2023-03-05T02:20:31;98348.25;;;24.43;32.43
38880;BME280;25887;30.194;-97.880;2023-03-05T02:23:07;98353.88;;;24.37;32.41
38880;BME280;25887;30.194;-97.880;2023-03-05T02:25:32;98352.50;;;24.30;32.44
38880;BME280;25887;30.194;-97.880;2023-03-05T02:28:02;98362.47;;;24.24;32.66
38880;BME280;25887;30.194;-97.880;2023-03-05T02:30:40;98357.56;;;24.17;32.87
38880;BME280;25887;30.194;-97.880;2023-03-05T02:33:05;98365.78;;;24.11;32.89
38880;BME280;25887;30.194;-97.880;2023-03-05T02:35:31;98367.91;;;24.05;32.97
38880;BME280;25887;30.194;-97.880;2023-03-05T02:37:57;98367.41;;;23.98;32.83
38880;BME280;25887;30.194;-97.880;2023-03-05T02:40:28;98372.22;;;23.90;33.03
38880;BME280;25887;30.194;-97.880;2023-03-05T02:43:14;98382.28;;;23.82;33.03
38880;BME280;25887;30.194;-97.880;2023-03-05T02:45:40;98375.56;;;23.76;33.38
38880;BME280;25887;30.194;-97.880;2023-03-05T02:48:06;98382.91;;;23.70;33.13
38880;BME280;25887;30.194;-97.880;2023-03-05T02:50:32;98386.72;;;23.64;33.14
38880;BME280;25887;30.194;-97.880;2023-03-05T02:52:58;98393.97;;;23.59;33.36
38880;BME280;25887;30.194;-97.880;2023-03-05T02:55:24;98395.97;;;23.54;33.60
38880;BME280;25887;30.194;-97.880;2023-03-05T02:57:52;98397.97;;;23.49;33.68
38880;BME280;25887;30.194;-97.880;2023-03-05T03:00:18;98399.06;;;23.45;33.72
38880;BME280;25887;30.194;-97.880;2023-03-05T03:02:44;98397.53;;;23.41;33.70
38880;BME280;25887;30.194;-97.880;2023-03-05T03:05:09;98402.19;;;23.35;33.74
38880;BME280;25887;30.194;-97.880;2023-03-05T03:07:35;98408.56;;;23.30;33.92
38880;BME280;25887;30.194;-97.880;2023-03-05T03:10:02;98418.50;;;23.23;33.66
38880;BME280;25887;30.194;-97.880;2023-03-05T03:12:28;98422.25;;;23.19;33.57
38880;BME280;25887;30.194;-97.880;2023-03-05T03:14:59;98424.22;;;23.14;33.75
38880;BME280;25887;30.194;-97.880;2023-03-05T03:17:25;98428.84;;;23.09;33.96
38880;BME280;25887;30.194;-97.880;2023-03-05T03:19:51;98433.63;;;23.01;33.68
38880;BME280;25887;30.194;-97.880;2023-03-05T03:22:46;98436.63;;;22.93;34.06
38880;BME280;25887;30.194;-97.880;2023-03-05T03:25:19;98433.44;;;22.87;34.13
38880;BME280;25887;30.194;-97.880;2023-03-05T03:27:47;98445.09;;;22.79;33.87
38880;BME280;25887;30.194;-97.880;2023-03-05T03:30:13;98453.28;;;22.73;34.18
38880;BME280;25887;30.194;-97.880;2023-03-05T03:32:40;98464.06;;;22.67;34.35
38880;BME280;25887;30.194;-97.880;2023-03-05T03:35:06;98459.09;;;22.61;33.94
38880;BME280;25887;30.194;-97.880;2023-03-05T03:37:32;98463.66;;;22.58;34.13
38880;BME280;25887;30.194;-97.880;2023-03-05T03:40:12;98467.41;;;22.52;34.37
38880;BME280;25887;30.194;-97.880;2023-03-05T03:42:38;98463.22;;;22.48;34.17
38880;BME280;25887;30.194;-97.880;2023-03-05T03:45:04;98465.97;;;22.45;34.54
38880;BME280;25887;30.194;-97.880;2023-03-05T03:47:31;98472.25;;;22.41;34.23
38880;BME280;25887;30.194;-97.880;2023-03-05T03:49:57;98477.72;;;22.36;34.52
38880;BME280;25887;30.194;-97.880;2023-03-05T03:52:26;98479.63;;;22.33;34.53
38880;BME280;25887;30.194;-97.880;2023-03-05T03:54:51;98471.94;;;22.30;34.68
38880;BME280;25887;30.194;-97.880;2023-03-05T03:57:19;98493.06;;;22.25;34.61
38880;BME280;25887;30.194;-97.880;2023-03-05T03:59:45;98488.81;;;22.22;34.41
38880;BME280;25887;30.194;-97.880;2023-03-05T04:02:18;98491.53;;;22.21;34.76
38880;BME280;25887;30.194;-97.880;2023-03-05T04:04:44;98499.44;;;22.19;34.65
38880;BME280;25887;30.194;-97.880;2023-03-05T04:07:10;98494.34;;;22.16;34.86
38880;BME280;25887;30.194;-97.880;2023-03-05T04:09:36;98498.78;;;22.14;34.75
38880;BME280;25887;30.194;-97.880;2023-03-05T04:12:01;98497.16;;;22.12;34.96
38880;BME280;25887;30.194;-97.880;2023-03-05T04:14:27;98498.97;;;22.10;35.09
38880;BME280;25887;30.194;-97.880;2023-03-05T04:17:12;98499.09;;;22.07;34.90
38880;BME280;25887;30.194;-97.880;2023-03-05T04:19:38;98494.94;;;22.03;34.93
38880;BME280;25887;30.194;-97.880;2023-03-05T04:22:04;98500.28;;;22.00;35.29
38880;BME280;25887;30.194;-97.880;2023-03-05T04:24:30;98497.81;;;21.96;35.51
38880;BME280;25887;30.194;-97.880;2023-03-05T04:27:16;98501.41;;;21.94;35.42
38880;BME280;25887;30.194;-97.880;2023-03-05T04:29:42;98504.09;;;21.92;35.86
38880;BME280;25887;30.194;-97.880;2023-03-05T04:32:08;98502.47;;;21.90;35.88
38880;BME280;25887;30.194;-97.880;2023-03-05T04:34:35;98507.84;;;21.87;35.91
38880;BME280;25887;30.194;-97.880;2023-03-05T04:37:01;98505.34;;;21.84;36.10
38880;BME280;25887;30.194;-97.880;2023-03-05T04:39:27;98508.97;;;21.81;36.40
38880;BME280;25887;30.194;-97.880;2023-03-05T04:41:53;98509.91;;;21.79;36.11
38880;BME280;25887;30.194;-97.880;2023-03-05T04:44:18;98510.06;;;21.76;36.49
38880;BME280;25887;30.194;-97.880;2023-03-05T04:46:47;98507.59;;;21.73;36.52
38880;BME280;25887;30.194;-97.880;2023-03-05T04:49:13;98508.56;;;21.70;36.73
38880;BME280;25887;30.194;-97.880;2023-03-05T04:51:41;98516.53;;;21.67;36.75
38880;BME280;25887;30.194;-97.880;2023-03-05T04:54:07;98509.72;;;21.63;36.69
38880;BME280;25887;30.194;-97.880;2023-03-05T04:56:33;98511.56;;;21.61;36.71
38880;BME280;25887;30.194;-97.880;2023-03-05T04:58:59;98513.47;;;21.57;36.77
38880;BME280;25887;30.194;-97.880;2023-03-05T05:01:42;98512.66;;;21.55;37.05
38880;BME280;25887;30.194;-97.880;2023-03-05T05:04:08;98511.13;;;21.51;36.82
38880;BME280;25887;30.194;-97.880;2023-03-05T05:06:34;98519.97;;;21.47;36.99
38880;BME280;25887;30.194;-97.880;2023-03-05T05:08:59;98517.50;;;21.44;37.33
38880;BME280;25887;30.194;-97.880;2023-03-05T05:11:25;98509.84;;;21.39;37.27
38880;BME280;25887;30.194;-97.880;2023-03-05T05:13:51;98506.53;;;21.36;37.29
38880;BME280;25887;30.194;-97.880;2023-03-05T05:16:17;98519.78;;;21.31;37.65
38880;BME280;25887;30.194;-97.880;2023-03-05T05:18:43;98517.34;;;21.27;37.42
38880;BME280;25887;30.194;-97.880;2023-03-05T05:21:38;98509.72;;;21.21;37.54
38880;BME280;25887;30.194;-97.880;2023-03-05T05:24:04;98514.25;;;21.17;37.61
38880;BME280;25887;30.194;-97.880;2023-03-05T05:26:30;98510.91;;;21.13;37.60
38880;BME280;25887;30.194;-97.880;2023-03-05T05:28:55;98514.56;;;21.09;38.09
38880;BME280;25887;30.194;-97.880;2023-03-05T05:31:21;98514.81;;;21.03;38.13
38880;BME280;25887;30.194;-97.880;2023-03-05T05:33:47;98519.28;;;21.00;38.21
38880;BME280;25887;30.194;-97.880;2023-03-05T05:36:16;98518.56;;;20.96;38.21
38880;BME280;25887;30.194;-97.880;2023-03-05T05:38:45;98511.75;;;20.92;38.30
38880;BME280;25887;30.194;-97.880;2023-03-05T05:41:12;98517.09;;;20.89;38.47
38880;BME280;25887;30.194;-97.880;2023-03-05T05:43:38;98520.72;;;20.85;38.45
38880;BME280;25887;30.194;-97.880;2023-03-05T05:46:19;98519.16;;;20.81;38.51
38880;BME280;25887;30.194;-97.880;2023-03-05T05:48:46;98526.25;;;20.77;38.56
38880;BME280;25887;30.194;-97.880;2023-03-05T05:51:16;98526.38;;;20.74;38.56
38880;BME280;25887;30.194;-97.880;2023-03-05T05:53:43;98526.56;;;20.70;38.50
38880;BME280;25887;30.194;-97.880;2023-03-05T05:56:09;98523.22;;;20.66;38.81
38880;BME280;25887;30.194;-97.880;2023-03-05T05:58:36;98523.38;;;20.62;38.84
38880;BME280;25887;30.194;-97.880;2023-03-05T06:01:17;98527.88;;;20.58;38.87
38880;BME280;25887;30.194;-97.880;2023-03-05T06:03:44;98535.88;;;20.53;38.91
38880;BME280;25887;30.194;-97.880;2023-03-05T06:06:23;98542.06;;;20.51;38.85
38880;BME280;25887;30.194;-97.880;2023-03-05T06:08:49;98537.84;;;20.48;38.89
38880;BME280;25887;30.194;-97.880;2023-03-05T06:11:15;98539.63;;;20.46;39.02
38880;BME280;25887;30.194;-97.880;2023-03-05T06:13:42;98533.66;;;20.43;39.05
38880;BME280;25887;30.194;-97.880;2023-03-05T06:16:09;98530.31;;;20.39;39.09
38880;BME280;25887;30.194;-97.880;2023-03-05T06:18:35;98529.56;;;20.36;39.16
38880;BME280;25887;30.194;-97.880;2023-03-05T06:21:03;98533.16;;;20.33;39.04
38880;BME280;25887;30.194;-97.880;2023-03-05T06:23:29;98538.47;;;20.30;39.07
38880;BME280;25887;30.194;-97.880;2023-03-05T06:25:59;98536.03;;;20.25;39.13
38880;BME280;25887;30.194;-97.880;2023-03-05T06:28:26;98538.75;;;20.22;39.28
38880;BME280;25887;30.194;-97.880;2023-03-05T06:31:05;98543.22;;;20.19;39.31
38880;BME280;25887;30.194;-97.880;2023-03-05T06:33:31;98541.63;;;20.15;39.33
38880;BME280;25887;30.194;-97.880;2023-03-05T06:35:57;98546.97;;;20.12;39.41
38880;BME280;25887;30.194;-97.880;2023-03-05T06:38:28;98544.47;;;20.09;39.37
38880;BME280;25887;30.194;-97.880;2023-03-05T06:40:54;98551.53;;;20.05;39.40
38880;BME280;25887;30.194;-97.880;2023-03-05T06:43:41;98560.41;;;20.01;39.47
38880;BME280;25887;30.194;-97.880;2023-03-05T06:46:09;98554.44;;;19.97;39.48
38880;BME280;25887;30.194;-97.880;2023-03-05T06:48:55;98550.25;;;19.93;39.65
38880;BME280;25887;30.194;-97.880;2023-03-05T06:51:22;98563.31;;;19.92;39.71
38880;BME280;25887;30.194;-97.880;2023-03-05T06:54:04;98556.50;;;19.88;39.75
38880;BME280;25887;30.194;-97.880;2023-03-05T06:56:31;98559.25;;;19.85;39.78
38880;BME280;25887;30.194;-97.880;2023-03-05T06:58:58;98560.19;;;19.82;39.88
38880;BME280;25887;30.194;-97.880;2023-03-05T07:01:24;98558.53;;;19.80;39.98
38880;BME280;25887;30.194;-97.880;2023-03-05T07:03:50;98561.19;;;19.78;39.95
38880;BME280;25887;30.194;-97.880;2023-03-05T07:06:17;98570.88;;;19.74;39.92
38880;BME280;25887;30.194;-97.880;2023-03-05T07:09:02;98565.75;;;19.71;40.04
38880;BME280;25887;30.194;-97.880;2023-03-05T07:11:28;98573.72;;;19.67;40.26
38880;BME280;25887;30.194;-97.880;2023-03-05T07:13:54;98570.38;;;19.63;40.22
38880;BME280;25887;30.194;-97.880;2023-03-05T07:16:24;98577.56;;;19.57;40.27
38880;BME280;25887;30.194;-97.880;2023-03-05T07:18:50;98577.72;;;19.51;40.31
38880;BME280;25887;30.194;-97.880;2023-03-05T07:21:17;98568.34;;;19.45;40.37
38880;BME280;25887;30.194;-97.880;2023-03-05T07:23:43;98578.06;;;19.40;40.49
38880;BME280;25887;30.194;-97.880;2023-03-05T07:26:17;98572.16;;;19.35;40.36
38880;BME280;25887;30.194;-97.880;2023-03-05T07:28:55;98573.19;;;19.29;40.48
38880;BME280;25887;30.194;-97.880;2023-03-05T07:31:22;98575.13;;;19.24;40.45
38880;BME280;25887;30.194;-97.880;2023-03-05T07:33:51;98579.59;;;19.19;40.51
38880;BME280;25887;30.194;-97.880;2023-03-05T07:36:17;98580.66;;;19.13;40.66
38880;BME280;25887;30.194;-97.880;2023-03-05T07:39:01;98575.72;;;19.04;40.62
38880;BME280;25887;30.194;-97.880;2023-03-05T07:41:39;98570.69;;;19.00;40.76
38880;BME280;25887;30.194;-97.880;2023-03-05T07:44:05;98569.06;;;18.96;40.86
38880;BME280;25887;30.194;-97.880;2023-03-05T07:46:32;98576.13;;;18.92;40.94
38880;BME280;25887;30.194;-97.880;2023-03-05T07:48:58;98571.84;;;18.89;41.12
38880;BME280;25887;30.194;-97.880;2023-03-05T07:51:25;98577.16;;;18.86;40.98
38880;BME280;25887;30.194;-97.880;2023-03-05T07:53:51;98572.06;;;18.83;41.12
38880;BME280;25887;30.194;-97.880;2023-03-05T07:56:35;98579.13;;;18.78;41.10
38880;BME280;25887;30.194;-97.880;2023-03-05T07:59:03;98578.47;;;18.72;41.15
38880;BME280;25887;30.194;-97.880;2023-03-05T08:01:48;98571.69;;;18.66;41.18
38880;BME280;25887;30.194;-97.880;2023-03-05T08:04:14;98571.78;;;18.61;41.44
38880;BME280;25887;30.194;-97.880;2023-03-05T08:06:40;98573.63;;;18.58;41.56
38880;BME280;25887;30.194;-97.880;2023-03-05T08:09:06;98564.22;;;18.54;41.55
38880;BME280;25887;30.194;-97.880;2023-03-05T08:11:32;98569.50;;;18.51;41.39
38880;BME280;25887;30.194;-97.880;2023-03-05T08:13:58;98572.13;;;18.49;41.62
38880;BME280;25887;30.194;-97.880;2023-03-05T08:16:25;98572.25;;;18.46;41.48
38880;BME280;25887;30.194;-97.880;2023-03-05T08:18:54;98565.34;;;18.44;41.59
38880;BME280;25887;30.194;-97.880;2023-03-05T08:21:24;98576.66;;;18.43;41.86
38880;BME280;25887;30.194;-97.880;2023-03-05T08:23:55;98575.88;;;18.41;41.88
38880;BME280;25887;30.194;-97.880;2023-03-05T08:26:22;98577.59;;;18.40;41.98
38880;BME280;25887;30.194;-97.880;2023-03-05T08:28:48;98572.47;;;18.38;41.76
38880;BME280;25887;30.194;-97.880;2023-03-05T08:31:14;98574.16;;;18.40;41.74
38880;BME280;25887;30.194;-97.880;2023-03-05T08:33:42;98575.97;;;18.37;41.83
38880;BME280;25887;30.194;-97.880;2023-03-05T08:36:08;98573.34;;;18.37;41.94
38880;BME280;25887;30.194;-97.880;2023-03-05T08:38:34;98575.13;;;18.35;42.05
38880;BME280;25887;30.194;-97.880;2023-03-05T08:41:00;98569.97;;;18.34;42.06
38880;BME280;25887;30.194;-97.880;2023-03-05T08:43:26;98565.72;;;18.31;42.18
38880;BME280;25887;30.194;-97.880;2023-03-05T08:45:53;98566.63;;;18.30;42.04
38880;BME280;25887;30.194;-97.880;2023-03-05T08:48:19;98571.00;;;18.28;42.16
38880;BME280;25887;30.194;-97.880;2023-03-05T08:51:16;98566.75;;;18.26;42.12
38880;BME280;25887;30.194;-97.880;2023-03-05T08:53:47;98563.34;;;18.24;42.25
38880;BME280;25887;30.194;-97.880;2023-03-05T08:56:13;98569.44;;;18.23;42.33
38880;BME280;25887;30.194;-97.880;2023-03-05T08:58:39;98565.16;;;18.20;42.43
38880;BME280;25887;30.194;-97.880;2023-03-05T09:01:05;98555.66;;;18.19;42.28
38880;BME280;25887;30.194;-97.880;2023-03-05T09:03:51;98557.44;;;18.17;42.55
38880;BME280;25887;30.194;-97.880;2023-03-05T09:06:17;98563.59;;;18.15;42.37
38880;BME280;25887;30.194;-97.880;2023-03-05T09:08:42;98558.50;;;18.10;42.53
38880;BME280;25887;30.194;-97.880;2023-03-05T09:11:10;98562.09;;;18.06;42.44
38880;BME280;25887;30.194;-97.880;2023-03-05T09:13:36;98561.28;;;18.04;42.55
38880;BME280;25887;30.194;-97.880;2023-03-05T09:16:14;98564.00;;;17.99;42.50
38880;BME280;25887;30.194;-97.880;2023-03-05T09:18:41;98568.53;;;17.93;42.71
38880;BME280;25887;30.194;-97.880;2023-03-05T09:21:27;98565.97;;;17.90;42.54
38880;BME280;25887;30.194;-97.880;2023-03-05T09:23:53;98563.47;;;17.87;42.58
38880;BME280;25887;30.194;-97.880;2023-03-05T09:26:24;98557.47;;;17.85;42.72
38880;BME280;25887;30.194;-97.880;2023-03-05T09:28:49;98565.34;;;17.81;42.71
38880;BME280;25887;30.194;-97.880;2023-03-05T09:31:15;98558.53;;;17.77;42.81
38880;BME280;25887;30.194;-97.880;2023-03-05T09:33:41;98564.69;;;17.73;42.61
38880;BME280;25887;30.194;-97.880;2023-03-05T09:36:18;98562.19;;;17.69;42.95
38880;BME280;25887;30.194;-97.880;2023-03-05T09:38:44;98568.34;;;17.65;42.76
38880;BME280;25887;30.194;-97.880;2023-03-05T09:52:11;98568.94;;;17.40;42.91
38880;BME280;25887;30.194;-97.880;2023-03-05T09:54:38;98569.94;;;17.36;43.01
38880;BME280;25887;30.194;-97.880;2023-03-05T09:57:10;98564.78;;;17.33;43.21
38880;BME280;25887;30.194;-97.880;2023-03-05T09:59:48;98573.53;;;17.31;43.07
38880;BME280;25887;30.194;-97.880;2023-03-05T10:02:27;98577.06;;;17.26;43.17
38880;BME280;25887;30.194;-97.880;2023-03-05T10:07:40;98579.03;;;17.17;43.29
38880;BME280;25887;30.194;-97.880;2023-03-05T10:10:11;98582.56;;;17.14;43.33
38880;BME280;25887;30.194;-97.880;2023-03-05T10:12:45;98585.22;;;17.11;43.32
38880;BME280;25887;30.194;-97.880;2023-03-05T10:15:14;98580.16;;;17.07;43.43
38880;BME280;25887;30.194;-97.880;2023-03-05T10:20:37;98575.16;;;16.97;43.29
38880;BME280;25887;30.194;-97.880;2023-03-05T10:28:27;98577.09;;;16.88;43.35
38880;BME280;25887;30.194;-97.880;2023-03-05T10:39:45;98584.28;;;16.77;43.59
38880;BME280;25887;30.194;-97.880;2023-03-05T10:41:48;98582.53;;;16.77;43.67
38880;BME280;25887;30.194;-97.880;2023-03-05T10:44:38;98583.38;;;16.78;43.86
38880;BME280;25887;30.194;-97.880;2023-03-05T10:47:10;98585.09;;;16.79;43.76
38880;BME280;25887;30.194;-97.880;2023-03-05T10:49:41;98586.78;;;16.80;44.04
38880;BME280;25887;30.194;-97.880;2023-03-05T10:52:28;98587.63;;;16.82;43.91
38880;BME280;25887;30.194;-97.880;2023-03-05T10:54:56;98585.03;;;16.80;43.97
38880;BME280;25887;30.194;-97.880;2023-03-05T10:57:40;98587.63;;;16.82;44.16
38880;BME280;25887;30.194;-97.880;2023-03-05T11:02:32;98580.69;;;16.82;44.09
38880;BME280;25887;30.194;-97.880;2023-03-05T11:04:58;98584.06;;;16.86;43.99
38880;BME280;25887;30.194;-97.880;2023-03-05T11:07:41;98580.53;;;16.90;44.10
38880;BME280;25887;30.194;-97.880;2023-03-05T11:10:15;98579.56;;;16.94;44.19
38880;BME280;25887;30.194;-97.880;2023-03-05T11:12:45;98577.72;;;16.99;44.21
38880;BME280;25887;30.194;-97.880;2023-03-05T11:17:41;98576.56;;;17.11;44.31
38880;BME280;25887;30.194;-97.880;2023-03-05T11:25:35;98584.00;;;17.26;44.61
38880;BME280;25887;30.194;-97.880;2023-03-05T11:28:36;98579.53;;;17.33;44.59
38880;BME280;25887;30.194;-97.880;2023-03-05T11:33:35;98571.59;;;17.39;44.65
38880;BME280;25887;30.194;-97.880;2023-03-05T11:44:08;98589.44;;;17.52;44.64
38880;BME280;25887;30.194;-97.880;2023-03-05T11:46:49;98587.66;;;17.54;44.90
38880;BME280;25887;30.194;-97.880;2023-03-05T11:49:19;98593.63;;;17.58;44.82
38880;BME280;25887;30.194;-97.880;2023-03-05T11:54:20;98586.63;;;17.62;44.96
38880;BME280;25887;30.194;-97.880;2023-03-05T11:56:47;98589.16;;;17.63;44.91
38880;BME280;25887;30.194;-97.880;2023-03-05T12:01:41;98586.53;;;17.65;45.36
38880;BME280;25887;30.194;-97.880;2023-03-05T12:04:08;98588.28;;;17.64;45.46
38880;BME280;25887;30.194;-97.880;2023-03-05T12:09:42;98590.81;;;17.66;45.60
38880;BME280;25887;30.194;-97.880;2023-03-05T12:17:46;98593.34;;;17.70;45.50
38880;BME280;25887;30.194;-97.880;2023-03-05T12:20:22;98596.75;;;17.72;45.48
38880;BME280;25887;30.194;-97.880;2023-03-05T12:22:52;98595.81;;;17.76;45.65
38880;BME280;25887;30.194;-97.880;2023-03-05T12:25:26;98600.09;;;17.77;45.59
38880;BME280;25887;30.194;-97.880;2023-03-05T12:27:52;98593.13;;;17.79;45.90
38880;BME280;25887;30.194;-97.880;2023-03-05T12:33:31;98601.72;;;17.81;46.08
38880;BME280;25887;30.194;-97.880;2023-03-05T12:38:51;98606.91;;;17.83;46.24
38880;BME280;25887;30.194;-97.880;2023-03-05T12:43:43;98606.84;;;17.85;46.33
38880;BME280;25887;30.194;-97.880;2023-03-05T12:46:24;98597.31;;;17.85;46.67
38880;BME280;25887;30.194;-97.880;2023-03-05T12:51:51;98606.84;;;17.85;46.83
38880;BME280;25887;30.194;-97.880;2023-03-05T12:54:21;98610.25;;;17.87;46.69
38880;BME280;25887;30.194;-97.880;2023-03-05T12:56:47;98615.47;;;17.87;46.92
38880;BME280;25887;30.194;-97.880;2023-03-05T12:59:14;98618.88;;;17.89;46.92
38880;BME280;25887;30.194;-97.880;2023-03-05T13:01:49;98630.97;;;17.90;46.93
38880;BME280;25887;30.194;-97.880;2023-03-05T13:04:18;98630.09;;;17.91;47.05
38880;BME280;25887;30.194;-97.880;2023-03-05T13:06:47;98635.22;;;17.94;46.96
38880;BME280;25887;30.194;-97.880;2023-03-05T13:09:25;98633.41;;;17.96;47.16
38880;BME280;25887;30.194;-97.880;2023-03-05T13:11:55;98642.97;;;17.95;47.78
38880;BME280;25887;30.194;-97.880;2023-03-05T13:19:56;98651.59;;;17.96;48.09
38880;BME280;25887;30.194;-97.880;2023-03-05T13:22:23;98648.13;;;17.97;48.42
38880;BME280;25887;30.194;-97.880;2023-03-05T13:27:36;98648.06;;;18.00;48.35
38880;BME280;25887;30.194;-97.880;2023-03-05T13:30:23;98654.97;;;18.01;48.28
38880;BME280;25887;30.194;-97.880;2023-03-05T13:32:50;98663.56;;;18.03;48.30
38880;BME280;25887;30.194;-97.880;2023-03-05T13:35:16;98669.56;;;18.05;48.33
38880;BME280;25887;30.194;-97.880;2023-03-05T13:40:38;98668.63;;;18.09;48.24
38880;BME280;25887;30.194;-97.880;2023-03-05T13:43:11;98671.13;;;18.12;48.46
38880;BME280;25887;30.194;-97.880;2023-03-05T13:45:42;98673.66;;;18.15;48.56
38880;BME280;25887;30.194;-97.880;2023-03-05T13:48:14;98681.47;;;18.15;48.44
38880;BME280;25887;30.194;-97.880;2023-03-05T13:50:42;98675.28;;;18.19;48.66
38880;BME280;25887;30.194;-97.880;2023-03-05T13:53:24;98678.72;;;18.21;48.75
38880;BME280;25887;30.194;-97.880;2023-03-05T13:55:52;98672.56;;;18.24;48.60
38880;BME280;25887;30.194;-97.880;2023-03-05T14:01:13;98680.22;;;18.28;48.85
38880;BME280;25887;30.194;-97.880;2023-03-05T14:03:40;98683.66;;;18.30;49.23
38880;BME280;25887;30.194;-97.880;2023-03-05T14:06:09;98688.81;;;18.32;48.94
38880;BME280;25887;30.194;-97.880;2023-03-05T14:08:36;98697.38;;;18.35;48.97
38880;BME280;25887;30.194;-97.880;2023-03-05T14:11:14;98704.31;;;18.36;49.38
38880;BME280;25887;30.194;-97.880;2023-03-05T14:13:41;98705.13;;;18.38;49.28
38880;BME280;25887;30.194;-97.880;2023-03-05T14:18:36;98711.03;;;18.44;49.08
38880;BME280;25887;30.194;-97.880;2023-03-05T14:21:11;98710.13;;;18.46;49.65
38880;BME280;25887;30.194;-97.880;2023-03-05T14:23:41;98721.34;;;18.48;49.67
38880;BME280;25887;30.194;-97.880;2023-03-05T14:28:41;98729.84;;;18.55;49.51
38880;BME280;25887;30.194;-97.880;2023-03-05T14:31:13;98726.25;;;18.59;49.41